Time;durP1;ratioP1;P1;durP2;ratioP2;P2;SDS_P1;SDS_P2;PMS_P1;PMS_P2;Temp;Humidity;BMP_temperature;BMP_pressure;BME280_temperature;BME280_humidity;BME280_pressure;Samples;Min_cycle;Max_cycle;Signal;HPM_P1;HPM_P2
2021/04/14 00:01:36;;;;;;;3.17;2.97;;;1.60;99.90;;;;;;5059305;28;20263;-66
2021/04/14 00:04:05;;;;;;;5.22;3.58;;;1.60;99.90;;;;;;5058818;28;20632;-66
2021/04/14 00:06:32;;;;;;;5.85;3.40;;;1.50;99.90;;;;;;5059253;28;20264;-66
2021/04/14 00:09:04;;;;;;;4.35;3.08;;;1.30;99.90;;;;;;5060158;28;20230;-66
2021/04/14 00:11:30;;;;;;;7.05;3.72;;;1.10;99.90;;;;;;5059800;28;20185;-66
2021/04/14 00:13:56;;;;;;;8.45;4.20;;;1.00;99.90;;;;;;5060092;28;20189;-66
2021/04/14 00:16:25;;;;;;;4.97;3.67;;;0.90;99.90;;;;;;5042681;28;20223;-66
2021/04/14 00:18:51;;;;;;;7.00;3.78;;;0.90;99.90;;;;;;5060197;28;20193;-66
2021/04/14 00:21:20;;;;;;;4.63;3.40;;;0.80;99.90;;;;;;5042356;28;20204;-66
2021/04/14 00:23:47;;;;;;;5.20;4.40;;;0.80;99.90;;;;;;5060306;28;20227;-66
2021/04/14 00:26:15;;;;;;;3.58;3.28;;;0.90;99.90;;;;;;5059541;28;20193;-66
2021/04/14 00:28:42;;;;;;;8.35;4.03;;;1.00;99.90;;;;;;5059016;28;20204;-66
2021/04/14 00:31:09;;;;;;;7.43;3.85;;;1.10;99.90;;;;;;5059269;28;20216;-66
2021/04/14 00:33:36;;;;;;;5.95;4.32;;;1.10;99.90;;;;;;5059181;28;20218;-66
2021/04/14 00:36:03;;;;;;;11.50;6.50;;;1.10;99.90;;;;;;5059600;28;20193;-66
2021/04/14 00:38:29;;;;;;;3.90;3.58;;;1.10;99.90;;;;;;5059840;28;20188;-66
2021/04/14 00:41:00;;;;;;;4.10;3.78;;;1.10;99.90;;;;;;5058500;28;20232;-66
2021/04/14 00:43:32;;;;;;;4.43;3.60;;;1.10;99.90;;;;;;5058978;28;20196;-66
2021/04/14 00:46:00;;;;;;;6.88;3.95;;;1.10;99.90;;;;;;5058883;28;20208;-66
2021/04/14 00:48:26;;;;;;;5.35;3.75;;;1.00;99.90;;;;;;5060002;28;20204;-66
2021/04/14 00:50:54;;;;;;;10.48;3.28;;;0.90;99.90;;;;;;5063055;28;20201;-66
2021/04/14 00:53:21;;;;;;;4.95;3.80;;;0.90;99.90;;;;;;5064642;28;20227;-66
2021/04/14 00:55:49;;;;;;;7.38;3.60;;;0.90;99.90;;;;;;5064667;28;20283;-66
2021/04/14 00:58:16;;;;;;;4.13;3.72;;;0.80;99.90;;;;;;5065524;28;20192;-67
2021/04/14 01:00:48;;;;;;;4.55;4.10;;;0.90;99.90;;;;;;5046929;28;20216;-66
2021/04/14 01:03:23;;;;;;;3.67;3.33;;;0.90;99.90;;;;;;5059313;28;20217;-66
2021/04/14 01:05:53;;;;;;;6.90;3.90;;;0.90;99.90;;;;;;5042838;28;20307;-66
2021/04/14 01:08:20;;;;;;;4.85;3.70;;;1.00;99.90;;;;;;5060826;28;20632;-66
2021/04/14 01:10:46;;;;;;;4.93;3.50;;;1.10;99.90;;;;;;5060713;28;20190;-66
2021/04/14 01:13:14;;;;;;;6.72;3.15;;;1.20;99.90;;;;;;5060090;28;20196;-66
2021/04/14 01:15:43;;;;;;;4.53;3.25;;;1.20;99.90;;;;;;5058902;28;20238;-66
2021/04/14 01:18:18;;;;;;;4.10;3.70;;;1.10;99.90;;;;;;5041631;28;20291;-66
2021/04/14 01:20:44;;;;;;;7.70;3.97;;;1.10;99.90;;;;;;5059791;28;20168;-66
2021/04/14 01:23:11;;;;;;;4.00;3.67;;;1.00;99.90;;;;;;5060328;28;20230;-66
2021/04/14 01:25:40;;;;;;;4.65;3.53;;;1.00;99.90;;;;;;5060187;28;20192;-66
2021/04/14 01:28:15;;;;;;;4.13;3.70;;;0.90;99.90;;;;;;5059930;28;20599;-66
2021/04/14 01:30:42;;;;;;;5.50;4.18;;;1.00;99.90;;;;;;5060148;28;20188;-66
2021/04/14 01:33:09;;;;;;;4.15;2.92;;;1.00;99.90;;;;;;5041762;28;20235;-66
2021/04/14 01:35:36;;;;;;;6.47;3.45;;;1.00;99.90;;;;;;5060063;28;20223;-68
2021/04/14 01:38:03;;;;;;;5.22;4.50;;;0.90;99.90;;;;;;5065345;28;20211;-66
2021/04/14 01:40:29;;;;;;;3.53;3.13;;;0.90;99.90;;;;;;5064894;28;20298;-66
2021/04/14 01:42:56;;;;;;;3.90;3.10;;;1.00;99.90;;;;;;5065833;28;20220;-65
2021/04/14 01:45:33;;;;;;;6.65;3.88;;;0.90;99.90;;;;;;5065296;28;20264;-65
2021/04/14 01:47:59;;;;;;;3.83;3.50;;;0.90;99.90;;;;;;5064836;28;20203;-66
2021/04/14 01:50:26;;;;;;;5.15;4.20;;;0.90;99.90;;;;;;5064955;28;20205;-66
2021/04/14 01:52:54;;;;;;;7.60;4.50;;;0.90;99.90;;;;;;5065050;28;20218;-66
2021/04/14 01:55:21;;;;;;;4.22;3.80;;;0.80;99.90;;;;;;5064928;28;20266;-66
2021/04/14 01:57:48;;;;;;;5.53;3.53;;;0.70;99.90;;;;;;5047337;28;20283;-66
2021/04/14 02:00:31;;;;;;;9.55;3.80;;;0.80;99.90;;;;;;5063383;28;20216;-66
2021/04/14 02:02:59;;;;;;;4.82;4.32;;;0.80;99.90;;;;;;5065388;28;20207;-66
2021/04/14 02:05:28;;;;;;;9.43;3.50;;;0.70;99.90;;;;;;5064101;28;20562;-65
2021/04/14 02:07:55;;;;;;;4.30;3.85;;;0.70;99.90;;;;;;5065358;28;20205;-66
2021/04/14 02:10:25;;;;;;;4.57;4.18;;;0.60;99.90;;;;;;5064852;28;20211;-66
2021/04/14 02:12:52;;;;;;;5.03;4.00;;;0.60;99.90;;;;;;5064290;28;20207;-68
2021/04/14 02:15:22;;;;;;;6.30;5.05;;;0.60;99.90;;;;;;5064753;28;20252;-66
2021/04/14 02:17:49;;;;;;;7.18;4.20;;;0.50;99.90;;;;;;5064537;28;20689;-66
2021/04/14 02:20:16;;;;;;;9.20;4.00;;;0.40;99.90;;;;;;5064714;28;20192;-65
2021/04/14 02:22:42;;;;;;;7.20;3.95;;;0.40;99.90;;;;;;5069011;28;20284;-65
2021/04/14 02:25:12;;;;;;;8.07;4.72;;;0.30;99.90;;;;;;5068506;28;20220;-66
2021/04/14 02:27:39;;;;;;;8.95;5.03;;;0.30;99.90;;;;;;5068615;28;20644;-66
2021/04/14 02:30:09;;;;;;;5.22;4.28;;;0.30;99.90;;;;;;5068644;28;20205;-66
2021/04/14 02:32:35;;;;;;;7.05;5.35;;;0.40;99.90;;;;;;5068465;28;20219;-66
2021/04/14 02:35:02;;;;;;;9.57;6.13;;;0.40;99.90;;;;;;5067985;28;20211;-66
2021/04/14 02:37:29;;;;;;;11.93;9.88;;;0.30;99.90;;;;;;5066290;28;20256;-66
2021/04/14 02:39:55;;;;;;;49.35;22.17;;;0.40;99.90;;;;;;5066216;28;20211;-65
2021/04/14 02:42:22;;;;;;;13.20;8.27;;;0.40;99.90;;;;;;5066318;28;20203;-66
2021/04/14 02:44:48;;;;;;;7.78;5.47;;;0.40;99.90;;;;;;5065900;28;20658;-66
2021/04/14 02:47:14;;;;;;;7.65;5.10;;;0.40;99.90;;;;;;5065652;28;20193;-66
2021/04/14 02:49:41;;;;;;;8.63;5.55;;;0.50;99.90;;;;;;5066069;28;20188;-66
2021/04/14 02:52:08;;;;;;;6.90;4.82;;;0.40;99.90;;;;;;5065336;28;20201;-66
2021/04/14 02:54:34;;;;;;;11.07;5.57;;;0.40;99.90;;;;;;5066348;28;20212;-66
2021/04/14 02:57:01;;;;;;;17.77;10.23;;;0.40;99.90;;;;;;5067110;28;20196;-66
2021/04/14 02:59:27;;;;;;;8.15;6.10;;;0.40;99.90;;;;;;5068638;28;20185;-66
2021/04/14 03:01:53;;;;;;;11.07;6.53;;;0.30;99.90;;;;;;5066776;28;20246;-66
2021/04/14 03:04:20;;;;;;;7.00;5.30;;;0.30;99.90;;;;;;5066657;28;20224;-66
2021/04/14 03:06:46;;;;;;;7.10;5.22;;;0.30;99.90;;;;;;5066899;28;20662;-66
2021/04/14 03:09:13;;;;;;;4.80;3.88;;;0.40;99.90;;;;;;5066252;28;20199;-66
2021/04/14 03:11:39;;;;;;;7.32;5.40;;;0.30;99.90;;;;;;5066761;28;20291;-66
2021/04/14 03:14:05;;;;;;;8.07;4.22;;;0.30;99.90;;;;;;5067277;28;20255;-66
2021/04/14 03:16:32;;;;;;;6.75;4.35;;;0.30;99.90;;;;;;5067017;28;20210;-66
2021/04/14 03:18:58;;;;;;;4.22;3.88;;;0.30;99.90;;;;;;5067728;28;20199;-66
2021/04/14 03:21:24;;;;;;;5.40;4.18;;;0.30;99.90;;;;;;5067148;28;20189;-66
2021/04/14 03:23:51;;;;;;;9.13;5.00;;;0.30;99.90;;;;;;5067269;28;20216;-66
2021/04/14 03:26:17;;;;;;;4.68;4.28;;;0.40;99.90;;;;;;5067790;28;20184;-66
2021/04/14 03:28:44;;;;;;;5.93;4.75;;;0.50;99.90;;;;;;5066292;28;20201;-66
2021/04/14 03:31:10;;;;;;;7.15;4.75;;;0.50;99.90;;;;;;5066145;28;20287;-66
2021/04/14 03:33:37;;;;;;;4.25;3.85;;;0.50;99.90;;;;;;5065944;28;20192;-66
2021/04/14 03:36:05;;;;;;;6.97;3.80;;;0.50;99.90;;;;;;5067760;28;20214;-66
2021/04/14 03:38:31;;;;;;;3.60;3.30;;;0.50;99.90;;;;;;5067590;28;20719;-69
2021/04/14 03:40:57;;;;;;;7.78;4.00;;;0.50;99.90;;;;;;5067995;28;20266;-69
2021/04/14 03:43:24;;;;;;;4.43;4.00;;;0.30;99.90;;;;;;5068323;28;20727;-66
2021/04/14 03:45:55;;;;;;;5.25;4.00;;;0.40;99.90;;;;;;5066671;28;20268;-66
2021/04/14 03:48:22;;;;;;;8.65;3.65;;;0.40;99.90;;;;;;5050215;28;20173;-69
2021/04/14 03:50:49;;;;;;;8.60;3.70;;;0.50;99.90;;;;;;5066770;28;20205;-66
2021/04/14 03:53:26;;;;;;;7.28;4.40;;;0.60;99.90;;;;;;5060415;28;20195;-66
2021/04/14 03:56:11;;;;;;;4.35;3.95;;;0.70;99.90;;;;;;5055547;28;20214;-63
2021/04/14 03:58:39;;;;;;;4.97;4.40;;;0.80;99.90;;;;;;5054639;28;20671;-65
2021/04/14 04:01:09;;;;;;;5.78;4.20;;;0.80;99.90;;;;;;5055890;28;20187;-63
2021/04/14 04:03:36;;;;;;;4.50;4.10;;;0.80;99.90;;;;;;5055207;28;20224;-63
2021/04/14 04:06:03;;;;;;;4.05;3.70;;;0.90;99.90;;;;;;5055417;28;20193;-63
2021/04/14 04:08:30;;;;;;;3.92;3.53;;;0.90;99.90;;;;;;5055740;28;20197;-63
2021/04/14 04:10:56;;;;;;;3.83;3.40;;;0.90;99.90;;;;;;5055373;28;20283;-63
2021/04/14 04:13:23;;;;;;;4.07;3.50;;;0.90;99.90;;;;;;5055574;28;20220;-64
2021/04/14 04:15:50;;;;;;;5.32;4.35;;;1.00;99.90;;;;;;5055300;28;20195;-64
2021/04/14 04:18:16;;;;;;;12.80;5.35;;;1.00;99.90;;;;;;5055070;28;20211;-64
2021/04/14 04:20:43;;;;;;;5.35;4.43;;;1.00;99.90;;;;;;5055153;28;20280;-64
2021/04/14 04:23:10;;;;;;;9.95;5.03;;;1.00;99.90;;;;;;5037632;28;20331;-64
2021/04/14 04:25:37;;;;;;;4.82;4.00;;;1.10;99.90;;;;;;5054143;28;20200;-64
2021/04/14 04:28:04;;;;;;;4.40;4.00;;;1.20;99.90;;;;;;5055062;28;20251;-63
2021/04/14 04:30:31;;;;;;;8.32;5.50;;;1.20;99.90;;;;;;5054969;28;20196;-64
2021/04/14 04:32:59;;;;;;;9.55;6.60;;;1.30;99.90;;;;;;5055616;28;20280;-64
2021/04/14 04:35:27;;;;;;;8.60;5.38;;;1.50;99.90;;;;;;5054695;28;20189;-64
2021/04/14 04:37:54;;;;;;;7.97;5.15;;;1.60;99.90;;;;;;5054764;28;20219;-64
2021/04/14 04:40:21;;;;;;;4.75;4.25;;;1.60;99.90;;;;;;5054716;28;20220;-63
2021/04/14 04:42:48;;;;;;;6.05;4.50;;;1.70;99.90;;;;;;5053745;28;20217;-63
2021/04/14 04:45:17;;;;;;;4.40;4.10;;;1.70;99.90;;;;;;5053701;28;20193;-64
2021/04/14 04:47:44;;;;;;;6.53;4.20;;;1.80;99.90;;;;;;5036271;28;20211;-63
2021/04/14 04:50:12;;;;;;;4.95;4.45;;;1.80;99.90;;;;;;5054880;28;20199;-64
2021/04/14 04:52:40;;;;;;;6.10;5.30;;;1.80;99.90;;;;;;5054842;28;20196;-64
2021/04/14 04:55:09;;;;;;;9.82;6.20;;;2.00;99.90;;;;;;5036584;28;20204;-64
2021/04/14 04:57:35;;;;;;;21.33;6.75;;;2.10;99.90;;;;;;5054528;28;20199;-63
2021/04/14 05:00:06;;;;;;;6.53;5.25;;;2.20;99.90;;;;;;5054894;28;20208;-64
2021/04/14 05:02:33;;;;;;;7.78;5.35;;;2.20;99.90;;;;;;5055079;28;20528;-64
2021/04/14 05:05:00;;;;;;;6.47;5.85;;;2.10;99.90;;;;;;5037461;28;20566;-64
2021/04/14 05:07:26;;;;;;;7.18;5.15;;;2.20;99.90;;;;;;5054810;28;20238;-64
2021/04/14 05:09:53;;;;;;;6.20;5.40;;;2.20;99.90;;;;;;5053983;28;20197;-64
2021/04/14 05:12:19;;;;;;;5.53;5.03;;;2.20;99.90;;;;;;5036318;28;20220;-64
2021/04/14 05:14:45;;;;;;;9.23;5.30;;;2.30;99.90;;;;;;5054522;28;20189;-64
2021/04/14 05:17:12;;;;;;;7.85;7.20;;;2.30;99.90;;;;;;5054414;28;20196;-64
2021/04/14 05:19:38;;;;;;;9.55;6.45;;;2.40;99.90;;;;;;5054421;28;20185;-64
2021/04/14 05:22:07;;;;;;;16.33;6.50;;;2.40;99.90;;;;;;5054197;28;20267;-64
2021/04/14 05:24:34;;;;;;;13.27;6.35;;;2.50;99.90;;;;;;5054161;28;20224;-64
2021/04/14 05:27:00;;;;;;;9.40;6.68;;;2.50;99.90;;;;;;5035929;28;20699;-64
2021/04/14 05:29:27;;;;;;;16.25;6.32;;;2.60;99.90;;;;;;5054272;28;20562;-64
2021/04/14 05:31:53;;;;;;;8.82;5.55;;;2.70;99.90;;;;;;5054005;28;20212;-64
2021/04/14 05:34:19;;;;;;;7.72;6.00;;;2.80;99.90;;;;;;5048097;28;20280;-64
2021/04/14 05:36:46;;;;;;;8.95;8.00;;;2.90;99.90;;;;;;5045273;28;20640;-64
2021/04/14 05:39:12;;;;;;;9.65;4.95;;;3.00;99.90;;;;;;5052697;28;20561;-64
2021/04/14 05:41:39;;;;;;;13.63;6.00;;;3.10;99.90;;;;;;5053795;28;20232;-64
2021/04/14 05:44:05;;;;;;;7.75;6.28;;;3.20;99.90;;;;;;5052962;28;20224;-64
2021/04/14 05:46:31;;;;;;;11.55;6.25;;;3.20;99.90;;;;;;5053513;28;20193;-64
2021/04/14 05:48:58;;;;;;;7.03;5.78;;;3.30;99.90;;;;;;5052521;28;20266;-64
2021/04/14 05:51:28;;;;;;;6.45;5.30;;;3.40;99.90;;;;;;5053146;28;20215;-64
2021/04/14 05:53:54;;;;;;;8.70;6.20;;;3.50;99.90;;;;;;5053566;28;20201;-64
2021/04/14 05:56:22;;;;;;;17.98;7.38;;;3.50;99.90;;;;;;5052802;28;20276;-64
2021/04/14 05:58:49;;;;;;;5.82;5.20;;;3.70;99.90;;;;;;5052649;28;20201;-64
2021/04/14 06:01:18;;;;;;;10.05;5.88;;;3.70;99.90;;;;;;5053078;28;20193;-64
2021/04/14 06:03:47;;;;;;;12.07;6.70;;;3.80;99.90;;;;;;5035192;28;20232;-64
2021/04/14 06:06:13;;;;;;;9.45;6.60;;;3.80;99.90;;;;;;5052790;28;20185;-64
2021/04/14 06:08:39;;;;;;;9.52;4.82;;;3.80;99.90;;;;;;5053043;28;20201;-64
2021/04/14 06:11:06;;;;;;;8.32;6.05;;;3.70;99.90;;;;;;5053307;28;20646;-64
2021/04/14 06:13:33;;;;;;;11.38;6.15;;;3.80;99.90;;;;;;5053842;28;20239;-64
2021/04/14 06:16:01;;;;;;;8.40;6.13;;;3.90;99.90;;;;;;5035882;28;20674;-64
2021/04/14 06:18:27;;;;;;;8.77;6.18;;;3.90;99.90;;;;;;5053572;28;20184;-64
2021/04/14 06:20:53;;;;;;;7.40;4.72;;;3.90;99.90;;;;;;5053554;28;20551;-64
2021/04/14 06:23:21;;;;;;;6.47;5.47;;;4.00;99.90;;;;;;5053678;28;20228;-64
2021/04/14 06:28:25;;;;;;;7.35;5.05;;;4.20;99.90;;;;;;5053640;28;20183;-64
2021/04/14 06:30:52;;;;;;;7.25;5.55;;;4.30;99.90;;;;;;5053595;28;20195;-65
2021/04/14 06:33:20;;;;;;;12.10;10.82;;;4.30;99.90;;;;;;5035838;28;20212;-64
2021/04/14 06:35:47;;;;;;;5.07;4.57;;;4.40;99.90;;;;;;5036840;28;20208;-64
2021/04/14 06:38:17;;;;;;;9.52;6.22;;;4.40;99.90;;;;;;5053317;28;20584;-64
2021/04/14 06:43:42;;;;;;;6.57;5.40;;;4.70;99.90;;;;;;5052931;28;20628;-63
2021/04/14 06:46:32;;;;;;;6.10;5.50;;;4.80;99.90;;;;;;5053088;28;20205;-63
2021/04/14 06:49:20;;;;;;;10.10;6.45;;;5.10;99.90;;;;;;5053399;28;20173;-63
2021/04/14 06:52:03;;;;;;;9.30;6.75;;;5.40;99.90;;;;;;5053642;28;20268;-63
2021/04/14 06:54:52;;;;;;;5.93;5.43;;;5.60;99.90;;;;;;5053165;28;20551;-63
2021/04/14 06:57:22;;;;;;;14.90;5.93;;;5.50;99.90;;;;;;5034699;28;20203;-63
2021/04/14 06:59:53;;;;;;;7.68;5.40;;;5.50;99.90;;;;;;5053438;28;20187;-62
2021/04/14 07:02:25;;;;;;;6.95;6.15;;;5.50;99.90;;;;;;5059259;28;20181;-67
2021/04/14 07:05:22;;;;;;;7.93;5.90;;;5.30;99.90;;;;;;5056647;28;20207;-66
2021/04/14 07:07:52;;;;;;;10.88;6.05;;;5.40;99.90;;;;;;5040235;28;20200;-66
2021/04/14 07:10:24;;;;;;;6.28;5.68;;;5.50;99.90;;;;;;5043498;28;20629;-66
2021/04/14 07:12:53;;;;;;;13.55;8.63;;;5.60;99.90;;;;;;5059534;28;20262;-67
2021/04/14 07:15:21;;;;;;;8.73;5.93;;;5.60;99.90;;;;;;5061719;28;20200;-66
2021/04/14 07:17:58;;;;;;;13.68;7.18;;;5.40;99.90;;;;;;5063200;28;20196;-66
2021/04/14 07:20:25;;;;;;;6.72;6.13;;;5.40;99.90;;;;;;5061501;28;20177;-67
2021/04/14 07:23:13;;;;;;;9.75;7.47;;;5.40;99.90;;;;;;5062621;28;20204;-67
2021/04/14 07:26:11;;;;;;;12.73;6.38;;;5.50;99.90;;;;;;5063429;28;20549;-67
2021/04/14 07:29:08;;;;;;;7.25;5.70;;;5.60;99.90;;;;;;5058708;28;20204;-66
2021/04/14 07:32:08;;;;;;;7.47;5.60;;;6.00;99.90;;;;;;5061540;28;20186;-64
2021/04/14 07:34:47;;;;;;;7.65;5.55;;;6.00;99.90;;;;;;5061323;28;20173;-66
2021/04/14 07:37:33;;;;;;;7.50;5.55;;;6.50;99.90;;;;;;5058203;28;20271;-66
2021/04/14 07:40:27;;;;;;;8.85;5.97;;;6.30;99.90;;;;;;5032055;28;20213;-66
2021/04/14 07:43:17;;;;;;;8.23;5.43;;;6.50;99.90;;;;;;5056529;28;20584;-67
2021/04/14 07:45:43;;;;;;;9.23;6.07;;;6.60;99.90;;;;;;5016521;28;20197;-67
2021/04/14 07:48:27;;;;;;;7.90;6.00;;;6.40;99.90;;;;;;5039716;28;20266;-67
2021/04/14 07:50:59;;;;;;;11.57;7.30;;;6.30;99.90;;;;;;5059592;28;20192;-66
2021/04/14 07:53:35;;;;;;;6.97;6.35;;;6.00;99.90;;;;;;5058204;28;20212;-67
2021/04/14 07:56:06;;;;;;;9.20;6.70;;;5.90;99.90;;;;;;5061253;28;20201;-67
2021/04/14 07:58:35;;;;;;;7.35;6.05;;;5.60;99.90;;;;;;5044598;28;20283;-66
2021/04/14 08:01:12;;;;;;;14.88;7.07;;;5.50;99.90;;;;;;5059397;28;20208;-66
2021/04/14 08:03:39;;;;;;;14.10;6.38;;;5.60;99.90;;;;;;5049832;28;20667;-66
2021/04/14 08:06:10;;;;;;;16.77;7.00;;;5.50;99.90;;;;;;5061423;28;20193;-66
2021/04/14 08:08:38;;;;;;;6.90;5.88;;;5.50;99.90;;;;;;5057741;28;20207;-67
2021/04/14 08:11:10;;;;;;;6.80;5.80;;;5.70;99.90;;;;;;5056202;28;20272;-67
2021/04/14 08:13:41;;;;;;;6.50;5.60;;;5.70;99.90;;;;;;5055608;28;20651;-66
2021/04/14 08:16:40;;;;;;;10.63;5.32;;;6.10;99.90;;;;;;5056404;28;20568;-66
2021/04/14 08:19:36;;;;;;;7.82;4.90;;;6.60;99.90;;;;;;5037880;28;20215;-66
2021/04/14 08:22:11;;;;;;;8.40;5.95;;;6.90;99.90;;;;;;5059247;28;20511;-66
2021/04/14 08:24:55;;;;;;;10.90;5.07;;;7.10;99.90;;;;;;5057734;28;20212;-66
2021/04/14 08:27:41;;;;;;;8.95;4.25;;;7.20;99.90;;;;;;5054877;28;20201;-67
2021/04/14 08:30:20;;;;;;;10.98;4.93;;;7.40;99.90;;;;;;5056358;28;20199;-67
2021/04/14 08:32:57;;;;;;;7.22;4.72;;;7.70;99.90;;;;;;5058105;28;20227;-66
2021/04/14 08:35:40;;;;;;;7.65;4.72;;;7.60;99.90;;;;;;5046774;28;20212;-66
2021/04/14 08:38:13;;;;;;;5.60;4.80;;;7.60;99.90;;;;;;5058566;28;20291;-66
2021/04/14 08:40:51;;;;;;;4.95;3.75;;;7.40;99.90;;;;;;5056536;28;20228;-65
2021/04/14 08:43:28;;;;;;;4.07;3.67;;;7.80;99.90;;;;;;5054627;28;20189;-65
2021/04/14 08:45:54;;;;;;;5.93;3.85;;;7.80;99.90;;;;;;5054714;28;20563;-64
2021/04/14 08:48:28;;;;;;;8.75;4.95;;;7.90;99.90;;;;;;5054284;28;20632;-65
2021/04/14 08:50:58;;;;;;;4.20;3.80;;;8.10;99.90;;;;;;5054570;28;20193;-65
2021/04/14 08:53:46;;;;;;;11.73;4.50;;;8.30;99.90;;;;;;5054267;28;20185;-65
2021/04/14 08:56:13;;;;;;;6.75;2.97;;;8.20;99.90;;;;;;5055037;28;20192;-64
2021/04/14 08:58:40;;;;;;;4.28;3.72;;;8.30;99.90;;;;;;5053891;28;20196;-64
2021/04/14 09:01:16;;;;;;;4.40;4.00;;;8.50;99.90;;;;;;5037184;28;20205;-64
2021/04/14 09:03:45;;;;;;;3.53;3.10;;;8.20;99.90;;;;;;5053028;28;20224;-64
2021/04/14 09:06:13;;;;;;;5.32;3.42;;;8.10;99.90;;;;;;5054176;28;20615;-64
2021/04/14 09:08:44;;;;;;;4.35;3.45;;;8.50;99.90;;;;;;5054155;28;20652;-64
2021/04/14 09:11:27;;;;;;;12.45;4.68;;;8.70;99.90;;;;;;5054075;28;20571;-64
2021/04/14 09:14:18;;;;;;;6.88;3.47;;;9.10;99.90;;;;;;5040597;28;20640;-64
2021/04/14 09:16:58;;;;;;;5.47;4.50;;;8.90;99.90;;;;;;5051945;28;20204;-64
2021/04/14 09:19:27;;;;;;;8.43;6.50;;;9.10;99.90;;;;;;5053759;28;20564;-64
2021/04/14 09:22:04;;;;;;;8.07;5.68;;;8.80;99.90;;;;;;5053444;28;20219;-64
2021/04/14 09:24:39;;;;;;;6.20;5.63;;;8.70;99.90;;;;;;5054017;28;20224;-63
2021/04/14 09:27:19;;;;;;;8.73;5.18;;;8.20;99.90;;;;;;5054007;28;20306;-63
2021/04/14 09:29:51;;;;;;;5.70;5.20;;;8.30;99.90;;;;;;5038195;28;20180;-64
2021/04/14 09:32:34;;;;;;;6.75;5.22;;;8.30;99.90;;;;;;5054015;28;20627;-64
2021/04/14 09:35:14;;;;;;;6.80;5.00;;;8.10;99.90;;;;;;5035989;28;20219;-63
2021/04/14 09:37:40;;;;;;;9.45;5.70;;;8.30;99.90;;;;;;5054145;28;20185;-63
2021/04/14 09:40:08;;;;;;;6.90;4.55;;;8.70;99.90;;;;;;5053761;28;20232;-64
2021/04/14 09:42:41;;;;;;;7.05;5.35;;;8.90;99.90;;;;;;5036586;28;20211;-63
2021/04/14 09:45:16;;;;;;;5.70;4.22;;;9.30;99.90;;;;;;5053943;28;20220;-64
2021/04/14 09:47:43;;;;;;;6.70;5.03;;;9.80;99.90;;;;;;5053812;28;20204;-64
2021/04/14 09:50:27;;;;;;;10.60;4.78;;;9.40;99.90;;;;;;5052518;28;20205;-64
2021/04/14 09:52:58;;;;;;;5.45;4.13;;;9.00;99.90;;;;;;5053241;28;20658;-64
2021/04/14 09:55:46;;;;;;;4.65;3.78;;;8.60;99.90;;;;;;5054513;28;20185;-64
2021/04/14 09:58:34;;;;;;;9.05;4.47;;;8.50;99.90;;;;;;5054621;28;20199;-64
2021/04/14 10:01:29;;;;;;;5.97;4.13;;;9.30;99.90;;;;;;5053614;28;20198;-64
2021/04/14 10:04:18;;;;;;;4.53;4.10;;;9.70;99.90;;;;;;5035824;28;20255;-64
2021/04/14 10:06:50;;;;;;;6.82;3.13;;;9.40;99.90;;;;;;5053689;28;20208;-65
2021/04/14 10:09:25;;;;;;;7.32;3.65;;;9.60;99.90;;;;;;5053592;28;20185;-65
2021/04/14 10:11:52;;;;;;;4.15;2.90;;;9.60;99.90;;;;;;5035334;28;20651;-65
2021/04/14 10:14:21;;;;;;;3.03;2.83;;;9.40;99.90;;;;;;5053804;28;20732;-65
2021/04/14 10:16:49;;;;;;;4.35;3.53;;;9.10;99.90;;;;;;5053786;28;20201;-65
2021/04/14 10:19:27;;;;;;;9.15;3.35;;;9.40;99.90;;;;;;5053557;28;20262;-65
2021/04/14 10:21:54;;;;;;;3.80;3.60;;;9.60;99.90;;;;;;5053192;28;20291;-65
2021/04/14 10:24:20;;;;;;;7.10;3.30;;;9.60;99.90;;;;;;5053271;28;20695;-65
2021/04/14 10:26:52;;;;;;;4.20;3.45;;;9.80;99.90;;;;;;5035749;28;20200;-65
2021/04/14 10:29:22;;;;;;;4.93;2.95;;;9.60;99.90;;;;;;5035320;28;20200;-65
2021/04/14 10:31:49;;;;;;;6.80;3.03;;;9.60;99.90;;;;;;5036058;28;20215;-65
2021/04/14 10:34:31;;;;;;;4.10;3.70;;;9.10;99.90;;;;;;5035706;28;20215;-66
2021/04/14 10:36:58;;;;;;;4.05;3.03;;;8.80;99.90;;;;;;5053813;28;20271;-66
2021/04/14 10:39:34;;;;;;;3.42;3.13;;;9.10;99.90;;;;;;5052637;28;20566;-66
2021/04/14 10:42:28;;;;;;;5.38;3.28;;;9.20;99.90;;;;;;5053800;28;20224;-66
2021/04/14 10:45:01;;;;;;;3.75;3.35;;;9.40;99.90;;;;;;5056495;28;20236;-66
2021/04/14 10:47:33;;;;;;;3.17;2.97;;;9.50;99.90;;;;;;5039427;28;20197;-66
2021/04/14 10:50:33;;;;;;;2.45;2.35;;;9.60;99.90;;;;;;5056542;28;20207;-67
2021/04/14 10:53:06;;;;;;;6.05;2.33;;;9.80;99.90;;;;;;5035507;28;20570;-67
2021/04/14 10:55:40;;;;;;;5.47;2.75;;;9.70;99.90;;;;;;5056065;28;20566;-67
2021/04/14 10:58:09;;;;;;;4.78;2.90;;;9.80;99.90;;;;;;5056974;28;20180;-67
2021/04/14 11:00:40;;;;;;;4.80;3.42;;;10.00;99.90;;;;;;5057400;28;20196;-67
2021/04/14 11:03:09;;;;;;;3.88;3.38;;;10.20;99.90;;;;;;5056299;28;20193;-66
2021/04/14 11:05:48;;;;;;;3.83;3.33;;;10.70;99.90;;;;;;5056806;28;20225;-66
2021/04/14 11:08:15;;;;;;;11.90;4.70;;;10.90;99.90;;;;;;5056923;28;20184;-65
2021/04/14 11:10:43;;;;;;;6.40;3.00;;;10.50;99.90;;;;;;5056918;28;20246;-65
2021/04/14 11:13:16;;;;;;;2.55;2.35;;;10.60;99.90;;;;;;5039653;28;20216;-64
2021/04/14 11:15:46;;;;;;;3.35;2.95;;;10.50;99.90;;;;;;5056430;28;20213;-65
2021/04/14 11:18:14;;;;;;;4.20;3.08;;;10.40;99.90;;;;;;5056316;28;20185;-66
2021/04/14 11:20:58;;;;;;;2.78;2.58;;;10.20;99.90;;;;;;5056630;28;20284;-65
2021/04/14 11:23:30;;;;;;;4.63;3.00;;;10.00;99.90;;;;;;5064000;28;20205;-66
2021/04/14 11:26:13;;;;;;;4.50;3.03;;;9.80;99.90;;;;;;5065366;28;20675;-66
2021/04/14 11:28:39;;;;;;;4.82;3.08;;;9.80;99.90;;;;;;5067102;28;20260;-66
2021/04/14 11:31:06;;;;;;;3.15;2.90;;;9.90;99.90;;;;;;5061373;28;20193;-67
2021/04/14 11:33:37;;;;;;;3.15;2.83;;;9.60;99.90;;;;;;5061692;28;20205;-66
2021/04/14 11:36:05;;;;;;;4.75;3.35;;;9.60;99.90;;;;;;5063672;28;20570;-66
2021/04/14 11:38:39;;;;;;;4.10;3.45;;;9.40;99.90;;;;;;5049444;28;20219;-66
2021/04/14 11:41:14;;;;;;;3.22;3.03;;;9.40;99.90;;;;;;5065185;28;20232;-67
2021/04/14 11:43:42;;;;;;;2.40;2.30;;;9.80;99.90;;;;;;5066776;28;20258;-66
2021/04/14 11:46:28;;;;;;;4.65;3.38;;;9.60;99.90;;;;;;5062032;28;20228;-66
2021/04/14 11:48:58;;;;;;;3.33;3.03;;;9.90;99.90;;;;;;5042964;28;20654;-66
2021/04/14 11:51:32;;;;;;;5.07;2.75;;;10.10;99.90;;;;;;5061878;28;20193;-66
2021/04/14 11:54:34;;;;;;;3.17;2.80;;;10.00;99.90;;;;;;5063746;28;20200;-66
2021/04/14 11:57:08;;;;;;;3.20;2.80;;;10.30;99.90;;;;;;5047669;28;20201;-66
2021/04/14 11:59:35;;;;;;;7.13;2.92;;;10.80;99.90;;;;;;5047066;28;20203;-66
2021/04/14 12:02:11;;;;;;;2.85;2.65;;;11.10;99.90;;;;;;5065743;28;20675;-66
2021/04/14 12:04:39;;;;;;;2.75;2.42;;;11.70;99.90;;;;;;5061222;28;20226;-67
2021/04/14 12:07:06;;;;;;;3.47;2.30;;;12.30;99.90;;;;;;5060429;28;20189;-66
2021/04/14 12:09:32;;;;;;;5.90;3.25;;;12.80;99.90;;;;;;5042709;28;20203;-66
2021/04/14 12:12:09;;;;;;;3.97;2.50;;;12.60;99.90;;;;;;5025416;28;20204;-67
2021/04/14 12:14:35;;;;;;;3.50;2.70;;;12.30;99.90;;;;;;5061343;28;20228;-67
2021/04/14 12:17:02;;;;;;;2.65;2.20;;;12.60;99.90;;;;;;5059679;28;20582;-66
2021/04/14 12:19:31;;;;;;;5.07;2.72;;;12.60;99.90;;;;;;5060955;28;20571;-66
2021/04/14 12:21:57;;;;;;;4.25;2.58;;;12.00;99.90;;;;;;5063067;28;20195;-66
2021/04/14 12:24:24;;;;;;;2.20;2.10;;;11.60;99.90;;;;;;5062111;28;20283;-67
2021/04/14 12:26:50;;;;;;;4.10;2.40;;;11.10;99.90;;;;;;5062704;28;20211;-67
2021/04/14 12:29:17;;;;;;;3.60;2.20;;;10.70;99.90;;;;;;5061611;28;20648;-67
2021/04/14 12:31:44;;;;;;;5.65;2.30;;;10.70;99.90;;;;;;5058258;28;20212;-66
2021/04/14 12:34:11;;;;;;;2.30;2.10;;;10.70;99.90;;;;;;5060480;28;20200;-66
2021/04/14 12:36:38;;;;;;;4.40;2.55;;;10.40;99.90;;;;;;5040989;28;20292;-65
2021/04/14 12:39:06;;;;;;;8.07;2.70;;;10.40;99.90;;;;;;5058723;28;20189;-67
2021/04/14 12:41:34;;;;;;;5.45;2.33;;;10.20;99.90;;;;;;5060155;28;20292;-66
2021/04/14 12:44:01;;;;;;;4.28;2.85;;;10.30;99.90;;;;;;5026042;28;20205;-66
2021/04/14 12:46:27;;;;;;;2.30;2.10;;;10.30;99.90;;;;;;5061418;28;20208;-66
2021/04/14 12:48:53;;;;;;;3.47;2.58;;;10.20;99.90;;;;;;5063627;28;20215;-66
2021/04/14 12:51:40;;;;;;;3.15;2.70;;;10.60;99.90;;;;;;5060314;28;20647;-66
2021/04/14 12:54:24;;;;;;;2.80;2.53;;;10.90;99.90;;;;;;5057043;28;20287;-66
2021/04/14 12:57:05;;;;;;;2.78;2.58;;;10.80;99.90;;;;;;5059610;28;20193;-66
2021/04/14 12:59:37;;;;;;;3.65;2.53;;;11.30;99.90;;;;;;5059134;28;20662;-66
2021/04/14 13:02:22;;;;;;;4.40;1.98;;;11.60;99.90;;;;;;5043215;28;20203;-66
2021/04/14 13:04:53;;;;;;;5.38;1.70;;;11.30;99.90;;;;;;5056814;28;20315;-66
2021/04/14 13:07:25;;;;;;;4.28;2.42;;;11.50;99.90;;;;;;5056079;28;20235;-66
2021/04/14 13:09:54;;;;;;;11.32;2.30;;;11.30;99.90;;;;;;5038354;28;20231;-66
2021/04/14 13:12:34;;;;;;;3.15;2.53;;;11.10;99.90;;;;;;5058490;28;20185;-66
2021/04/14 13:15:00;;;;;;;3.08;2.65;;;11.20;99.90;;;;;;5058576;28;20223;-66
2021/04/14 13:17:32;;;;;;;2.88;2.13;;;10.70;99.90;;;;;;5057581;28;20212;-65
2021/04/14 13:20:03;;;;;;;3.97;2.95;;;11.30;99.90;;;;;;5039023;28;20535;-67
2021/04/14 13:22:39;;;;;;;6.22;1.77;;;11.20;99.90;;;;;;5057805;28;20177;-67